Time;durP1;ratioP1;P1;durP2;ratioP2;P2;SDS_P1;SDS_P2;PMS_P1;PMS_P2;Temp;Humidity;BMP_temperature;BMP_pressure;BME280_temperature;BME280_humidity;BME280_pressure;Samples;Min_cycle;Max_cycle;Signal;HPM_P1;HPM_P2
2023/07/16 00:00:25;;;;;;;5.40;4.90;;;;;;;21.22;62.24;99887.36;131354;1253;107527;-72
2023/07/16 00:03:52;;;;;;;6.10;5.60;;;;;;;21.18;62.35;99885.73;131348;1251;108752;-72
2023/07/16 00:06:58;;;;;;;6.00;5.40;;;;;;;21.17;62.52;99884.25;131264;1254;107508;-72
2023/07/16 00:10:03;;;;;;;6.40;5.20;;;;;;;21.18;62.60;99886.17;131069;1251;107590;-72
2023/07/16 00:13:09;;;;;;;7.00;5.60;;;;;;;21.23;62.70;99885.64;131192;1255;107508;-72
2023/07/16 00:16:15;;;;;;;6.20;5.50;;;;;;;21.26;62.48;99884.24;130983;1254;106648;-72
2023/07/16 00:19:20;;;;;;;6.20;5.60;;;;;;;21.25;62.70;99881.02;131189;1251;107267;-72
2023/07/16 00:22:26;;;;;;;6.20;5.60;;;;;;;21.23;62.63;99884.86;131081;1251;107355;-72
2023/07/16 00:25:31;;;;;;;6.90;5.40;;;;;;;21.24;62.70;99888.10;131082;1254;109202;-72
2023/07/16 00:28:37;;;;;;;6.00;5.50;;;;;;;21.16;62.84;99886.44;131130;1254;107286;-72
2023/07/16 00:31:43;;;;;;;6.60;5.90;;;;;;;21.14;63.02;99882.20;130988;1258;108105;-72
2023/07/16 00:34:48;;;;;;;5.80;5.20;;;;;;;21.16;63.01;99881.30;130950;1253;218562;-72
2023/07/16 00:37:54;;;;;;;7.80;5.90;;;;;;;21.14;62.97;99882.99;131006;1251;106258;-72
2023/07/16 00:40:59;;;;;;;6.30;5.70;;;;;;;21.07;63.03;99879.80;131040;1264;108098;-72
2023/07/16 00:44:05;;;;;;;6.10;5.50;;;;;;;21.04;63.16;99877.73;131062;1250;107371;-72
2023/07/16 00:47:11;;;;;;;5.90;5.40;;;;;;;20.98;63.18;99871.70;131060;1251;107510;-72
2023/07/16 00:50:16;;;;;;;6.30;5.70;;;;;;;20.89;63.25;99867.73;131132;1254;107501;-72
2023/07/16 00:53:23;;;;;;;6.20;5.60;;;;;;;20.82;63.49;99862.92;131045;1254;107482;-72
2023/07/16 00:56:29;;;;;;;6.40;5.70;;;;;;;20.79;63.77;99865.90;131042;1263;106656;-72
2023/07/16 00:59:35;;;;;;;6.80;5.60;;;;;;;20.77;63.78;99865.09;131002;1254;107437;-72
2023/07/16 01:02:41;;;;;;;6.10;5.50;;;;;;;20.77;63.76;99864.27;131035;1263;107462;-72
2023/07/16 01:05:52;;;;;;;6.20;5.50;;;;;;;20.74;63.86;99863.91;131076;1253;107591;-72
2023/07/16 01:09:03;;;;;;;5.70;5.20;;;;;;;20.75;63.90;99856.39;131440;1254;107343;-75
2023/07/16 01:12:10;;;;;;;6.50;5.40;;;;;;;20.74;63.95;99852.79;131199;1263;106863;-73
2023/07/16 01:15:16;;;;;;;6.20;5.60;;;;;;;20.76;64.02;99848.13;131039;1250;107512;-72
2023/07/16 01:18:21;;;;;;;6.00;5.40;;;;;;;20.77;64.07;99844.69;131041;1249;107404;-72
2023/07/16 01:21:32;;;;;;;7.10;5.70;;;;;;;20.76;64.07;99842.23;131287;1251;107713;-72
2023/07/16 01:25:02;;;;;;;7.00;5.60;;;;;;;20.72;64.14;99837.52;131237;1250;107481;-72
2023/07/16 01:28:37;;;;;;;6.60;5.50;;;;;;;20.73;64.14;99831.07;131163;1254;107468;-72
2023/07/16 01:31:44;;;;;;;6.60;5.60;;;;;;;20.71;64.26;99829.55;131200;1254;107145;-72
2023/07/16 01:34:51;;;;;;;6.70;5.60;;;;;;;20.69;64.43;99827.08;131103;1250;106579;-72
2023/07/16 01:37:56;;;;;;;6.20;5.60;;;;;;;20.67;64.46;99823.86;131239;1251;107534;-72
2023/07/16 01:41:02;;;;;;;6.60;6.00;;;;;;;20.64;64.56;99825.10;131237;1264;107590;-72
2023/07/16 01:44:07;;;;;;;6.60;6.00;;;;;;;20.62;64.59;99822.71;131055;1254;105774;-72
2023/07/16 01:47:16;;;;;;;6.10;5.60;;;;;;;20.57;64.67;99822.20;131029;1255;107521;-72
2023/07/16 01:50:21;;;;;;;6.20;5.60;;;;;;;20.51;64.78;99820.21;131090;1254;107529;-72
2023/07/16 01:53:27;;;;;;;5.70;5.20;;;;;;;20.48;64.85;99822.09;131060;1249;107593;-72
2023/07/16 01:56:33;;;;;;;6.40;5.70;;;;;;;20.48;65.03;99819.20;131007;1251;107242;-72
2023/07/16 01:59:39;;;;;;;5.90;5.30;;;;;;;20.48;65.02;99817.67;131075;1254;107344;-72
2023/07/16 02:02:44;;;;;;;6.60;6.00;;;;;;;20.51;65.12;99816.29;130947;1254;107507;-73
2023/07/16 02:05:51;;;;;;;6.40;5.80;;;;;;;20.56;65.09;99814.92;131120;1254;108118;-72
2023/07/16 02:08:57;;;;;;;6.60;5.70;;;;;;;20.54;65.09;99815.98;130888;1250;107548;-72
2023/07/16 02:12:05;;;;;;;5.90;5.40;;;;;;;20.53;65.14;99812.88;131164;1249;107504;-73
2023/07/16 02:15:11;;;;;;;6.50;5.90;;;;;;;20.49;65.21;99814.56;130996;1254;107610;-73
2023/07/16 02:18:17;;;;;;;6.00;5.50;;;;;;;20.47;65.50;99812.63;131046;1264;107276;-73
2023/07/16 02:21:22;;;;;;;6.50;5.80;;;;;;;20.49;65.36;99810.06;131151;1253;107541;-73
2023/07/16 02:24:28;;;;;;;6.60;6.00;;;;;;;20.47;65.57;99810.04;131055;1249;107464;-73
2023/07/16 02:27:33;;;;;;;6.30;5.80;;;;;;;20.48;65.58;99812.95;131077;1250;107573;-73
2023/07/16 02:30:41;;;;;;;6.80;6.20;;;;;;;20.46;65.62;99811.59;131112;1249;107522;-73
2023/07/16 02:33:46;;;;;;;6.70;6.10;;;;;;;20.44;65.64;99811.59;131015;1253;107665;-73
2023/07/16 02:36:52;;;;;;;6.00;5.40;;;;;;;20.38;65.77;99808.95;131083;1267;107520;-73
2023/07/16 02:39:59;;;;;;;6.10;5.50;;;;;;;20.35;65.83;99807.56;131061;1250;107551;-73
2023/07/16 02:43:05;;;;;;;6.00;5.40;;;;;;;20.37;65.91;99810.51;131087;1263;107519;-73
2023/07/16 02:46:10;;;;;;;6.50;5.80;;;;;;;20.41;66.00;99810.12;131049;1255;107254;-73
2023/07/16 02:49:16;;;;;;;7.20;5.80;;;;;;;20.48;66.06;99808.02;131061;1251;107508;-73
2023/07/16 02:52:22;;;;;;;7.40;6.40;;;;;;;20.51;66.00;99810.18;131186;1252;107580;-72
2023/07/16 02:55:27;;;;;;;6.60;6.00;;;;;;;20.55;66.10;99807.90;131177;1254;106757;-73
2023/07/16 02:58:33;;;;;;;6.50;5.90;;;;;;;20.59;66.19;99812.52;131152;1251;107510;-72
2023/07/16 03:01:39;;;;;;;6.50;5.90;;;;;;;20.63;66.20;99810.90;131037;1250;107321;-73
2023/07/16 03:04:44;;;;;;;7.00;6.30;;;;;;;20.63;66.20;99809.27;131155;1254;107500;-73
2023/07/16 03:07:52;;;;;;;6.90;6.00;;;;;;;20.66;66.39;99807.30;131164;1254;107360;-73
2023/07/16 03:10:58;;;;;;;7.30;6.50;;;;;;;20.73;66.34;99809.45;131102;1253;105976;-72
2023/07/16 03:14:03;;;;;;;6.70;6.10;;;;;;;20.72;66.39;99813.44;131051;1254;107290;-72
2023/07/16 03:17:09;;;;;;;6.20;5.60;;;;;;;20.73;66.43;99816.21;131074;1254;107470;-73
2023/07/16 03:20:15;;;;;;;6.60;6.00;;;;;;;20.75;66.50;99820.12;131061;1254;106619;-73
2023/07/16 03:23:20;;;;;;;6.40;5.80;;;;;;;20.76;66.53;99821.55;131131;1252;107540;-73
2023/07/16 03:26:26;;;;;;;6.40;5.90;;;;;;;20.79;66.63;99819.20;131081;1253;107219;-73
2023/07/16 03:29:31;;;;;;;6.60;5.80;;;;;;;20.87;66.74;99824.45;131045;1253;108132;-72
2023/07/16 03:32:37;;;;;;;6.30;5.80;;;;;;;20.96;66.70;99831.02;130982;1250;107252;-73
2023/07/16 03:35:44;;;;;;;6.90;6.30;;;;;;;21.03;66.81;99825.79;131080;1254;107535;-73
2023/07/16 03:38:50;;;;;;;7.20;6.40;;;;;;;21.26;66.72;99828.30;131073;1254;107407;-72
2023/07/16 03:41:57;;;;;;;7.10;6.40;;;;;;;21.53;66.54;99829.93;131052;1254;107415;-74
2023/07/16 03:45:02;;;;;;;6.70;6.10;;;;;;;21.73;66.52;99830.30;131059;1254;107392;-75
2023/07/16 03:48:08;;;;;;;7.30;6.60;;;;;;;21.88;66.40;99826.40;130941;1255;106525;-74
2023/07/16 03:51:15;;;;;;;6.80;5.70;;;;;;;22.04;66.32;99822.50;131027;1253;107437;-73
2023/07/16 03:54:20;;;;;;;6.40;5.80;;;;;;;22.24;66.20;99824.89;131031;1263;107457;-73
2023/07/16 03:57:26;;;;;;;6.90;5.50;;;;;;;22.38;66.18;99826.83;131001;1250;107460;-74
2023/07/16 04:00:31;;;;;;;6.00;5.30;;;;;;;22.54;66.32;99825.72;131081;1251;108111;-73
2023/07/16 04:03:37;;;;;;;5.80;5.30;;;;;;;22.81;65.85;99824.97;131018;1254;107541;-74
2023/07/16 04:06:44;;;;;;;5.70;5.10;;;;;;;23.16;65.49;99822.34;131162;1254;107501;-74
2023/07/16 04:09:50;;;;;;;7.50;6.20;;;;;;;23.46;65.09;99824.56;131248;1254;109164;-75
2023/07/16 04:12:55;;;;;;;5.90;5.40;;;;;;;23.72;64.91;99827.02;131229;1250;107227;-73
2023/07/16 04:16:01;;;;;;;6.40;5.70;;;;;;;23.94;64.71;99828.23;131137;1253;107523;-73
2023/07/16 04:19:07;;;;;;;6.20;5.70;;;;;;;24.14;64.42;99828.10;131251;1252;107542;-74
2023/07/16 04:22:12;;;;;;;5.60;5.10;;;;;;;24.33;64.27;99831.48;131106;1265;107330;-73
2023/07/16 04:25:18;;;;;;;6.40;5.80;;;;;;;24.49;64.18;99828.00;131306;1254;107546;-73
2023/07/16 04:28:24;;;;;;;6.60;6.00;;;;;;;24.62;63.91;99827.05;131237;1250;107262;-74
2023/07/16 04:31:30;;;;;;;6.10;5.50;;;;;;;24.74;63.79;99825.81;131062;1254;107599;-73
2023/07/16 04:34:35;;;;;;;6.60;5.60;;;;;;;24.84;63.69;99824.23;131466;1255;107568;-73
2023/07/16 04:37:41;;;;;;;6.50;6.00;;;;;;;24.92;63.49;99825.23;131445;1253;107615;-74
2023/07/16 04:40:47;;;;;;;6.00;5.40;;;;;;;25.01;63.39;99824.70;131292;1252;106728;-74
2023/07/16 04:43:53;;;;;;;7.30;5.90;;;;;;;25.09;63.13;99826.91;131216;1251;107848;-74
2023/07/16 04:46:58;;;;;;;6.60;5.90;;;;;;;25.21;62.89;99831.23;131167;1263;107522;-74
2023/07/16 04:50:04;;;;;;;7.20;6.20;;;;;;;25.32;62.93;99831.11;131423;1254;107603;-74
2023/07/16 04:53:09;;;;;;;6.50;6.00;;;;;;;25.37;62.57;99828.92;131576;1247;107511;-74
2023/07/16 04:56:16;;;;;;;6.20;5.60;;;;;;;25.44;62.37;99828.65;131359;1250;107519;-74
2023/07/16 04:59:21;;;;;;;6.40;5.80;;;;;;;25.51;62.29;99825.03;131251;1249;106684;-74
2023/07/16 05:02:28;;;;;;;6.00;5.50;;;;;;;25.56;61.86;99823.27;131281;1252;107518;-74
2023/07/16 05:05:34;;;;;;;6.90;6.20;;;;;;;25.58;61.79;99828.30;131335;1249;106769;-73
2023/07/16 05:08:40;;;;;;;7.00;6.40;;;;;;;25.61;61.76;99827.83;131158;1250;107380;-75
2023/07/16 05:11:45;;;;;;;7.20;6.20;;;;;;;25.65;61.67;99830.81;131351;1252;107495;-73
2023/07/16 05:14:52;;;;;;;6.60;6.00;;;;;;;25.68;61.75;99831.38;131043;1256;105727;-74
2023/07/16 05:17:58;;;;;;;6.80;6.20;;;;;;;25.73;61.55;99836.55;131070;1254;107234;-74
2023/07/16 05:21:04;;;;;;;7.40;6.70;;;;;;;25.77;61.32;99836.30;131044;1249;105999;-76
2023/07/16 05:24:13;;;;;;;7.30;6.60;;;;;;;25.84;61.27;99839.13;131101;1253;107411;-74
2023/07/16 05:27:18;;;;;;;7.80;5.80;;;;;;;25.91;61.10;99838.95;131034;1249;107527;-74
2023/07/16 05:30:24;;;;;;;6.40;5.80;;;;;;;25.97;60.82;99837.96;131196;1249;107632;-74
2023/07/16 05:33:29;;;;;;;7.90;6.10;;;;;;;26.01;60.79;99834.92;131132;1254;107519;-73
2023/07/16 05:36:35;;;;;;;7.00;6.40;;;;;;;26.06;60.70;99838.34;131095;1249;107546;-73
2023/07/16 05:39:40;;;;;;;7.80;6.30;;;;;;;26.09;60.06;99842.35;131026;1262;107220;-73
2023/07/16 05:42:46;;;;;;;6.80;6.10;;;;;;;26.11;60.13;99843.18;131065;1253;107535;-73
2023/07/16 05:45:52;;;;;;;6.50;5.90;;;;;;;26.14;60.16;99848.00;131062;1253;107525;-73
2023/07/16 05:48:57;;;;;;;6.80;6.20;;;;;;;26.16;60.03;99851.85;131019;1253;107530;-73
2023/07/16 05:52:03;;;;;;;6.40;5.80;;;;;;;26.14;59.55;99851.20;131113;1255;107494;-74
2023/07/16 05:55:09;;;;;;;6.50;6.00;;;;;;;26.12;59.31;99859.98;131215;1252;105846;-73
2023/07/16 05:58:15;;;;;;;6.70;6.10;;;;;;;26.13;59.69;99863.31;131162;1250;107709;-73
2023/07/16 06:01:20;;;;;;;6.80;6.10;;;;;;;26.13;59.23;99865.12;131208;1249;107489;-73
2023/07/16 06:04:26;;;;;;;7.00;6.30;;;;;;;26.08;59.32;99866.07;131134;1254;107400;-73
2023/07/16 06:07:32;;;;;;;6.80;6.20;;;;;;;26.06;59.15;99867.38;131313;1250;107341;-74
2023/07/16 06:10:38;;;;;;;6.70;6.10;;;;;;;26.03;59.62;99878.25;131179;1254;106908;-73
2023/07/16 06:13:44;;;;;;;8.00;7.00;;;;;;;26.09;59.79;99881.73;131143;1254;108110;-73
2023/07/16 06:16:49;;;;;;;6.90;6.30;;;;;;;26.19;59.79;99884.41;131164;1250;107848;-74
2023/07/16 06:19:55;;;;;;;7.80;7.10;;;;;;;26.22;59.13;99893.77;131311;1251;107562;-74
2023/07/16 06:23:00;;;;;;;7.10;6.50;;;;;;;26.27;59.64;99900.02;131295;1250;107362;-73
2023/07/16 06:26:06;;;;;;;6.70;6.10;;;;;;;26.29;59.20;99903.10;131102;1249;107540;-73
2023/07/16 06:29:11;;;;;;;6.90;6.20;;;;;;;26.31;59.33;99907.83;131189;1255;107537;-72
2023/07/16 06:32:17;;;;;;;6.70;6.10;;;;;;;26.37;59.37;99904.52;131022;1254;107961;-73
2023/07/16 06:35:22;;;;;;;6.70;6.10;;;;;;;26.41;58.91;99892.42;131038;1250;107506;-73
2023/07/16 06:38:29;;;;;;;7.00;6.10;;;;;;;26.41;58.92;99893.15;131007;1250;108593;-74
2023/07/16 06:41:35;;;;;;;6.00;5.50;;;;;;;26.44;58.83;99889.21;130982;1254;107442;-73
2023/07/16 06:44:40;;;;;;;6.20;5.60;;;;;;;26.51;58.70;99890.02;131085;1255;107391;-73
2023/07/16 06:47:46;;;;;;;6.80;5.70;;;;;;;26.64;58.74;99892.21;131281;1250;107507;-74
2023/07/16 06:50:52;;;;;;;6.40;5.70;;;;;;;26.73;57.60;99895.33;131080;1254;107501;-73
2023/07/16 06:53:57;;;;;;;7.00;5.80;;;;;;;26.80;57.40;99892.33;131091;1253;106709;-73
2023/07/16 06:57:03;;;;;;;6.50;5.90;;;;;;;26.89;56.42;99888.30;131013;1252;107514;-74
2023/07/16 07:00:11;;;;;;;6.10;5.60;;;;;;;26.86;56.77;99890.82;131055;1254;106737;-74
2023/07/16 07:03:17;;;;;;;6.30;5.70;;;;;;;27.05;56.61;99885.05;131257;1251;107400;-74
2023/07/16 07:06:22;;;;;;;7.00;5.40;;;;;;;27.21;56.75;99878.11;131093;1254;107526;-74
2023/07/16 07:09:28;;;;;;;6.50;5.90;;;;;;;27.35;56.42;99867.07;131094;1249;107544;-74
2023/07/16 07:12:37;;;;;;;10.20;5.80;;;;;;;27.49;56.12;99866.70;131193;1254;107629;-74
2023/07/16 07:15:44;;;;;;;6.30;5.70;;;;;;;27.63;55.85;99863.17;130987;1253;107445;-77
2023/07/16 07:18:49;;;;;;;7.60;6.00;;;;;;;27.73;55.51;99859.64;131036;1250;107377;-76
2023/07/16 07:21:55;;;;;;;6.40;5.80;;;;;;;27.78;55.09;99851.20;131116;1254;107985;-76
2023/07/16 07:25:00;;;;;;;6.40;5.80;;;;;;;27.78;55.50;99844.61;131149;1254;107999;-78
2023/07/16 07:28:06;;;;;;;9.10;7.10;;;;;;;27.81;55.29;99847.89;131281;1254;107581;-77
2023/07/16 07:31:12;;;;;;;7.00;6.40;;;;;;;27.88;54.94;99847.67;131115;1249;107493;-78
2023/07/16 07:34:17;;;;;;;6.90;6.30;;;;;;;27.91;55.21;99848.95;131077;1254;107503;-75
2023/07/16 07:37:23;;;;;;;8.00;7.00;;;;;;;28.03;55.19;99857.91;131095;1250;107464;-76
2023/07/16 07:40:29;;;;;;;7.60;6.90;;;;;;;28.26;55.16;99860.35;131228;1250;107542;-76
2023/07/16 07:43:34;;;;;;;7.50;6.80;;;;;;;28.48;54.19;99855.60;131231;1254;107521;-76
2023/07/16 07:46:40;;;;;;;8.40;7.10;;;;;;;28.68;54.16;99858.48;130967;1254;107538;-77
2023/07/16 07:49:45;;;;;;;6.90;6.20;;;;;;;28.83;54.17;99857.45;130952;1253;107527;-76
2023/07/16 07:52:51;;;;;;;6.90;6.30;;;;;;;28.97;53.82;99864.40;131090;1252;107426;-76
2023/07/16 07:55:56;;;;;;;7.60;6.60;;;;;;;29.10;53.78;99859.16;131026;1253;107537;-76
2023/07/16 07:59:02;;;;;;;6.20;5.70;;;;;;;29.22;53.83;99860.19;131291;1253;108672;-76
2023/07/16 08:02:08;;;;;;;6.30;5.80;;;;;;;29.31;53.47;99859.73;131217;1253;107578;-78
2023/07/16 08:05:13;;;;;;;7.60;5.80;;;;;;;29.40;53.30;99857.34;131413;1251;107515;-77
2023/07/16 08:08:19;;;;;;;6.80;6.10;;;;;;;29.51;53.26;99856.14;131138;1253;107194;-77
2023/07/16 08:11:25;;;;;;;6.50;5.90;;;;;;;29.61;53.37;99862.98;131167;1254;107520;-76
2023/07/16 08:14:30;;;;;;;6.10;5.50;;;;;;;29.69;53.02;99859.38;131137;1250;108460;-76
2023/07/16 08:17:36;;;;;;;5.40;5.00;;;;;;;29.76;52.37;99861.26;131092;1255;107909;-76
2023/07/16 08:20:41;;;;;;;6.10;5.50;;;;;;;29.83;52.56;99862.36;131149;1254;107399;-77
2023/07/16 08:23:47;;;;;;;5.90;5.30;;;;;;;29.89;52.14;99857.55;131064;1253;108619;-76
2023/07/16 08:26:53;;;;;;;6.40;5.40;;;;;;;29.95;52.05;99859.31;131034;1255;107506;-76
2023/07/16 08:29:59;;;;;;;8.00;5.60;;;;;;;30.02;51.93;99859.49;131049;1253;107573;-77
2023/07/16 08:33:04;;;;;;;6.00;5.50;;;;;;;30.06;51.30;99867.56;130959;1250;107532;-77
2023/07/16 08:36:10;;;;;;;6.50;5.90;;;;;;;30.08;51.53;99869.55;131239;1249;107919;-77
2023/07/16 08:39:19;;;;;;;6.40;5.80;;;;;;;30.13;51.78;99867.91;131144;1264;108102;-77
2023/07/16 08:42:33;;;;;;;6.40;5.60;;;;;;;30.19;51.72;99873.02;131137;1254;108371;-77
2023/07/16 08:45:59;;;;;;;6.30;5.70;;;;;;;30.23;51.71;99867.68;131192;1251;107341;-81
2023/07/16 08:49:06;;;;;;;5.70;5.10;;;;;;;30.28;51.27;99869.48;131167;1249;106617;-78
2023/07/16 08:52:12;;;;;;;6.90;5.20;;;;;;;30.32;51.54;99868.59;131078;1252;107495;-78
2023/07/16 08:55:18;;;;;;;5.60;4.80;;;;;;;30.40;51.27;99874.15;131424;1249;108690;-78
2023/07/16 08:58:25;;;;;;;6.30;5.20;;;;;;;30.46;50.78;99883.17;131207;1254;107630;-78
2023/07/16 09:01:31;;;;;;;6.10;5.20;;;;;;;30.48;50.27;99879.61;131389;1255;107898;-78
2023/07/16 09:04:36;;;;;;;5.90;4.90;;;;;;;30.50;50.10;99878.10;131128;1264;107556;-78
2023/07/16 09:07:42;;;;;;;5.90;5.30;;;;;;;30.51;49.61;99877.87;131045;1254;107970;-78
2023/07/16 09:10:56;;;;;;;5.70;5.20;;;;;;;30.57;49.93;99886.00;131010;1251;107868;-79
2023/07/16 09:14:03;;;;;;;6.00;5.10;;;;;;;30.68;50.13;99880.57;131042;1247;106064;-79
2023/07/16 09:17:09;;;;;;;7.30;5.40;;;;;;;30.77;49.58;99874.77;131105;1250;107228;-78
2023/07/16 09:20:17;;;;;;;5.70;5.20;;;;;;;30.78;49.24;99886.48;131227;1253;107598;-78
2023/07/16 09:23:24;;;;;;;5.90;5.40;;;;;;;30.80;49.43;99883.91;131138;1254;107515;-78
2023/07/16 09:26:29;;;;;;;6.70;5.30;;;;;;;30.84;49.14;99890.43;131951;1252;107274;-79
2023/07/16 09:29:38;;;;;;;6.00;5.40;;;;;;;30.87;48.18;99895.17;131231;1252;107492;-78
2023/07/16 09:32:45;;;;;;;6.00;5.50;;;;;;;30.93;48.67;99895.88;131183;1250;107584;-79
2023/07/16 09:35:52;;;;;;;5.80;5.20;;;;;;;31.01;48.01;99900.48;131052;1264;108433;-78
2023/07/16 09:38:59;;;;;;;5.80;5.20;;;;;;;31.09;48.28;99902.05;131207;1252;106708;-79
2023/07/16 09:42:06;;;;;;;6.50;5.90;;;;;;;31.29;47.28;99898.33;131207;1252;105889;-79
2023/07/16 09:45:20;;;;;;;5.50;5.00;;;;;;;31.39;46.94;99903.46;131047;1253;107510;-79
2023/07/16 09:48:26;;;;;;;6.00;5.00;;;;;;;31.31;46.49;99900.48;131081;1252;107719;-78
2023/07/16 09:51:33;;;;;;;6.40;5.40;;;;;;;31.26;46.68;99902.00;131119;1252;107519;-78
2023/07/16 09:54:41;;;;;;;6.50;4.80;;;;;;;31.33;46.56;99902.52;131122;1253;107573;-78
2023/07/16 09:57:48;;;;;;;5.90;4.50;;;;;;;31.42;45.82;99908.24;131120;1254;107503;-79
2023/07/16 10:00:58;;;;;;;8.10;4.50;;;;;;;31.29;44.62;99911.50;131178;1252;107515;-78
2023/07/16 10:04:13;;;;;;;4.60;4.30;;;;;;;31.08;43.90;99908.56;131092;1250;108386;-79
2023/07/16 10:07:26;;;;;;;5.50;4.50;;;;;;;30.94;44.20;99921.98;131175;1261;108240;-80
2023/07/16 10:10:43;;;;;;;6.30;4.20;;;;;;;30.89;44.64;99926.23;131137;1252;107680;-78
2023/07/16 10:13:53;;;;;;;4.90;4.50;;;;;;;30.95;44.42;99917.91;131247;1254;107449;-78
2023/07/16 10:17:06;;;;;;;6.20;4.50;;;;;;;31.04;44.16;99924.49;131105;1254;107380;-79
2023/07/16 10:20:12;;;;;;;4.90;4.40;;;;;;;31.10;43.57;99918.89;131191;1252;107363;-77
2023/07/16 10:23:19;;;;;;;5.10;4.40;;;;;;;31.13;43.44;99923.20;131119;1253;107428;-78
2023/07/16 10:26:29;;;;;;;4.20;3.90;;;;;;;31.17;43.75;99921.77;131163;1252;107505;-78
2023/07/16 10:29:36;;;;;;;5.00;4.20;;;;;;;31.23;43.39;99921.34;131144;1248;107593;-78
2023/07/16 10:32:42;;;;;;;4.50;4.10;;;;;;;31.26;43.36;99921.35;131157;1252;106617;-78
2023/07/16 10:35:48;;;;;;;4.00;3.70;;;;;;;31.25;42.97;99926.98;131812;1250;107233;-80
2023/07/16 10:38:54;;;;;;;4.10;3.70;;;;;;;31.32;43.05;99925.52;131233;1250;107370;-78
2023/07/16 10:42:00;;;;;;;4.30;3.90;;;;;;;31.41;42.88;99930.38;131215;1252;107339;-78
2023/07/16 10:45:08;;;;;;;4.50;4.10;;;;;;;31.45;42.14;99931.71;131228;1247;107967;-78
2023/07/16 10:48:15;;;;;;;4.50;3.90;;;;;;;31.40;42.03;99924.72;131289;1253;107437;-79
2023/07/16 10:51:27;;;;;;;6.40;3.90;;;;;;;31.37;42.06;99927.26;131159;1253;107615;-78
2023/07/16 10:54:33;;;;;;;3.70;3.30;;;;;;;31.39;42.03;99924.35;131252;1252;107609;-77
2023/07/16 10:57:38;;;;;;;3.60;3.30;;;;;;;31.48;40.62;99929.31;131487;1248;107509;-79
2023/07/16 11:00:45;;;;;;;3.90;2.90;;;;;;;31.61;41.68;99923.58;131323;1252;107352;-76
2023/07/16 11:03:51;;;;;;;3.10;2.80;;;;;;;31.79;40.51;99925.16;131135;1248;109297;-76
2023/07/16 11:06:56;;;;;;;3.50;2.60;;;;;;;31.79;41.19;99921.08;131131;1247;107564;-77
2023/07/16 11:10:02;;;;;;;2.80;2.60;;;;;;;31.83;40.24;99927.73;131142;1251;107406;-77
2023/07/16 11:13:08;;;;;;;3.30;2.30;;;;;;;31.85;38.45;99928.79;131299;1252;107340;-77
2023/07/16 11:16:16;;;;;;;3.00;2.20;;;;;;;31.89;38.88;99925.14;131142;1250;107206;-78
2023/07/16 11:19:23;;;;;;;2.30;2.10;;;;;;;31.94;37.05;99935.86;131339;1253;107564;-82
2023/07/16 11:22:29;;;;;;;2.30;2.10;;;;;;;31.90;38.24;99943.70;131356;1250;107906;-81
2023/07/16 11:25:35;;;;;;;2.10;1.90;;;;;;;31.84;36.22;99950.10;131311;1252;107608;-81
2023/07/16 11:28:41;;;;;;;3.30;2.20;;;;;;;31.82;36.67;99943.64;131677;1252;107894;-81
2023/07/16 11:31:51;;;;;;;2.80;2.30;;;;;;;31.91;37.14;99939.33;131225;1252;105931;-81
2023/07/16 11:34:57;;;;;;;2.50;2.20;;;;;;;32.06;37.45;99940.30;131281;1250;107974;-82
2023/07/16 11:38:05;;;;;;;2.90;2.60;;;;;;;32.17;36.19;99935.40;131302;1252;106683;-79
2023/07/16 11:41:10;;;;;;;2.90;2.70;;;;;;;32.25;37.32;99931.22;131280;1252;107505;-81
2023/07/16 11:44:16;;;;;;;3.80;2.40;;;;;;;32.38;37.19;99934.95;131255;1248;107530;-82
2023/07/16 11:47:21;;;;;;;3.50;3.10;;;;;;;32.38;36.68;99935.15;131300;1253;107373;-81
2023/07/16 11:50:30;;;;;;;2.70;2.40;;;;;;;32.26;36.27;99938.27;131198;1252;107547;-81
2023/07/16 11:53:36;;;;;;;2.90;2.60;;;;;;;32.22;36.88;99940.66;131231;1249;106668;-81
2023/07/16 11:56:42;;;;;;;2.70;2.50;;;;;;;32.30;36.86;99933.45;131301;1252;107473;-81
2023/07/16 11:59:48;;;;;;;3.10;2.70;;;;;;;32.42;35.93;99925.80;131293;1252;108686;-81
2023/07/16 12:02:54;;;;;;;3.20;2.70;;;;;;;32.59;36.54;99926.69;131280;1252;107959;-81
2023/07/16 12:06:00;;;;;;;2.40;2.20;;;;;;;32.71;35.11;99936.73;131228;1252;107962;-82
2023/07/16 12:09:06;;;;;;;2.80;2.20;;;;;;;32.66;35.39;99930.85;131259;1252;107532;-81
2023/07/16 12:12:11;;;;;;;2.60;2.40;;;;;;;32.63;35.30;99930.97;131219;1252;107488;-81
2023/07/16 12:15:17;;;;;;;3.60;2.20;;;;;;;32.61;35.83;99924.45;131294;1252;108647;-81
2023/07/16 12:18:22;;;;;;;2.90;2.20;;;;;;;32.69;36.68;99922.39;131290;1252;107529;-82
2023/07/16 12:21:28;;;;;;;3.10;2.30;;;;;;;32.87;36.48;99917.76;131214;1250;108618;-81
2023/07/16 12:24:34;;;;;;;2.60;2.40;;;;;;;32.98;36.65;99914.30;131284;1260;107845;-81
2023/07/16 12:27:39;;;;;;;2.50;2.30;;;;;;;33.09;36.52;99914.61;131248;1248;107544;-81
2023/07/16 12:30:45;;;;;;;2.40;2.20;;;;;;;33.08;36.56;99919.44;131213;1252;107409;-81
2023/07/16 12:33:50;;;;;;;2.80;2.50;;;;;;;33.11;36.58;99916.07;131144;1252;161748;-81
2023/07/16 12:36:56;;;;;;;3.40;1.90;;;;;;;33.10;36.18;99919.02;131248;1250;107510;-82
2023/07/16 12:40:03;;;;;;;5.00;2.50;;;;;;;33.09;36.35;99920.23;131672;1251;107470;-80
2023/07/16 12:43:09;;;;;;;2.50;2.30;;;;;;;33.08;35.32;99915.52;131321;1250;107272;-80
2023/07/16 12:46:14;;;;;;;2.70;1.90;;;;;;;32.97;36.05;99908.18;131245;1249;108124;-80
2023/07/16 12:49:20;;;;;;;2.80;2.10;;;;;;;33.00;36.63;99899.33;131238;1252;107647;-80
2023/07/16 12:52:26;;;;;;;2.40;2.20;;;;;;;33.13;36.47;99897.16;131264;1247;107496;-79
2023/07/16 12:55:33;;;;;;;2.90;1.80;;;;;;;33.14;35.75;99887.26;131448;1259;106230;-82
2023/07/16 12:58:39;;;;;;;2.90;2.00;;;;;;;33.16;35.92;99890.85;131529;1252;108669;-79
2023/07/16 13:01:44;;;;;;;2.40;1.70;;;;;;;33.11;35.71;99895.12;131886;1253;107469;-80
2023/07/16 13:04:50;;;;;;;2.30;1.70;;;;;;;33.01;35.79;99893.11;131749;1252;109092;-79
2023/07/16 13:07:55;;;;;;;2.30;1.90;;;;;;;32.91;35.91;99900.14;131590;1252;108402;-79
2023/07/16 13:11:01;;;;;;;2.10;1.90;;;;;;;32.84;35.43;99904.76;131387;1250;106367;-79
2023/07/16 13:14:06;;;;;;;2.80;1.90;;;;;;;32.68;35.29;99908.79;131364;1250;107521;-80
2023/07/16 13:17:12;;;;;;;1.90;1.80;;;;;;;32.53;35.35;99913.44;131445;1252;107729;-82
2023/07/16 13:20:19;;;;;;;3.10;1.70;;;;;;;32.46;35.95;99914.38;131276;1253;107560;-79
2023/07/16 13:23:25;;;;;;;1.90;1.70;;;;;;;32.33;35.41;99916.86;131376;1248;107301;-81
2023/07/16 13:26:31;;;;;;;1.70;1.60;;;;;;;32.06;35.85;99930.58;131412;1252;107513;-80
2023/07/16 13:29:36;;;;;;;1.80;1.70;;;;;;;31.81;36.33;99938.23;131285;1250;107637;-79
2023/07/16 13:32:45;;;;;;;3.40;1.70;;;;;;;31.52;36.54;99938.71;131403;1253;105759;-80
2023/07/16 13:35:50;;;;;;;1.90;1.40;;;;;;;31.33;36.63;99935.14;131435;1247;106708;-80
2023/07/16 13:38:56;;;;;;;1.80;1.70;;;;;;;31.11;36.90;99939.55;131347;1252;107613;-80
2023/07/16 13:42:01;;;;;;;1.80;1.60;;;;;;;30.84;37.14;99948.51;131416;1252;107510;-80
2023/07/16 13:45:09;;;;;;;1.70;1.60;;;;;;;30.63;37.48;99941.22;131236;1252;108066;-80
2023/07/16 13:48:14;;;;;;;2.70;1.50;;;;;;;30.47;37.42;99941.76;131234;1253;107598;-80
2023/07/16 13:51:20;;;;;;;1.80;1.60;;;;;;;30.32;37.64;99948.23;131230;1250;107305;-80
2023/07/16 13:54:26;;;;;;;2.90;1.80;;;;;;;30.23;37.80;99950.62;131334;1253;107943;-79
2023/07/16 13:57:32;;;;;;;2.70;1.60;;;;;;;30.17;37.95;99949.86;131466;1250;107531;-80
2023/07/16 14:00:37;;;;;;;3.20;1.60;;;;;;;30.15;38.29;99952.08;131319;1254;107473;-80
2023/07/16 14:03:43;;;;;;;4.80;1.60;;;;;;;30.16;38.55;99960.67;131327;1252;107570;-79
2023/07/16 14:06:48;;;;;;;1.70;1.50;;;;;;;30.16;38.51;99964.13;131163;1253;107570;-79
2023/07/16 14:09:55;;;;;;;1.70;1.60;;;;;;;30.17;38.59;99963.36;131173;1248;107948;-79
2023/07/16 14:13:00;;;;;;;2.20;1.90;;;;;;;30.19;38.78;99964.27;131155;1253;107447;-79
2023/07/16 14:16:06;;;;;;;1.80;1.60;;;;;;;30.19;38.93;99967.69;131172;1252;107449;-79